sensor_id;sensor_type;location;lat;lon;timestamp;P1;durP1;ratioP1;P2;durP2;ratioP2
53710;SDS011;39605;52.704;6.752;2023-08-07T00:01:57;6.78;;;6.20;;
53710;SDS011;39605;52.704;6.752;2023-08-07T00:04:23;6.43;;;5.93;;
53710;SDS011;39605;52.704;6.752;2023-08-07T00:06:50;6.25;;;5.85;;
53710;SDS011;39605;52.704;6.752;2023-08-07T00:09:16;6.35;;;5.22;;
53710;SDS011;39605;52.704;6.752;2023-08-07T00:11:42;6.00;;;5.45;;
53710;SDS011;39605;52.704;6.752;2023-08-07T00:14:08;5.40;;;5.00;;
53710;SDS011;39605;52.704;6.752;2023-08-07T00:16:34;5.68;;;5.15;;
53710;SDS011;39605;52.704;6.752;2023-08-07T00:19:00;5.35;;;4.95;;
53710;SDS011;39605;52.704;6.752;2023-08-07T00:21:26;5.57;;;4.80;;
53710;SDS011;39605;52.704;6.752;2023-08-07T00:23:52;4.88;;;4.47;;
53710;SDS011;39605;52.704;6.752;2023-08-07T00:26:20;4.78;;;4.47;;
53710;SDS011;39605;52.704;6.752;2023-08-07T00:28:46;4.43;;;4.05;;
53710;SDS011;39605;52.704;6.752;2023-08-07T00:31:12;4.68;;;4.38;;
53710;SDS011;39605;52.704;6.752;2023-08-07T00:33:38;4.70;;;4.38;;
53710;SDS011;39605;52.704;6.752;2023-08-07T00:36:04;4.28;;;3.92;;
53710;SDS011;39605;52.704;6.752;2023-08-07T00:38:30;4.40;;;4.10;;
53710;SDS011;39605;52.704;6.752;2023-08-07T00:40:56;4.70;;;4.28;;
53710;SDS011;39605;52.704;6.752;2023-08-07T00:43:24;4.95;;;4.55;;
53710;SDS011;39605;52.704;6.752;2023-08-07T00:45:51;4.47;;;4.03;;
53710;SDS011;39605;52.704;6.752;2023-08-07T00:48:17;4.28;;;3.42;;
53710;SDS011;39605;52.704;6.752;2023-08-07T00:50:43;4.38;;;3.97;;
53710;SDS011;39605;52.704;6.752;2023-08-07T00:53:10;4.82;;;3.53;;
53710;SDS011;39605;52.704;6.752;2023-08-07T00:55:36;5.25;;;3.05;;
53710;SDS011;39605;52.704;6.752;2023-08-07T00:58:02;3.97;;;3.47;;
53710;SDS011;39605;52.704;6.752;2023-08-07T01:00:29;4.85;;;3.72;;
53710;SDS011;39605;52.704;6.752;2023-08-07T01:02:57;5.95;;;3.67;;
53710;SDS011;39605;52.704;6.752;2023-08-07T01:05:25;3.35;;;3.03;;
53710;SDS011;39605;52.704;6.752;2023-08-07T01:07:51;3.88;;;3.60;;
53710;SDS011;39605;52.704;6.752;2023-08-07T01:10:22;3.13;;;2.78;;
53710;SDS011;39605;52.704;6.752;2023-08-07T01:12:57;3.15;;;2.85;;
53710;SDS011;39605;52.704;6.752;2023-08-07T01:15:28;4.78;;;3.22;;
53710;SDS011;39605;52.704;6.752;2023-08-07T01:17:55;3.15;;;2.55;;
53710;SDS011;39605;52.704;6.752;2023-08-07T01:20:22;5.22;;;3.00;;
53710;SDS011;39605;52.704;6.752;2023-08-07T01:22:48;3.53;;;3.10;;
53710;SDS011;39605;52.704;6.752;2023-08-07T01:25:14;4.15;;;3.33;;
53710;SDS011;39605;52.704;6.752;2023-08-07T01:27:54;3.15;;;2.60;;
53710;SDS011;39605;52.704;6.752;2023-08-07T01:30:24;3.30;;;2.72;;
53710;SDS011;39605;52.704;6.752;2023-08-07T01:33:10;2.72;;;2.53;;
53710;SDS011;39605;52.704;6.752;2023-08-07T01:35:46;3.38;;;2.22;;
53710;SDS011;39605;52.704;6.752;2023-08-07T01:40:39;4.18;;;2.50;;
53710;SDS011;39605;52.704;6.752;2023-08-07T01:43:05;3.88;;;2.50;;
53710;SDS011;39605;52.704;6.752;2023-08-07T01:45:31;2.30;;;2.03;;
53710;SDS011;39605;52.704;6.752;2023-08-07T01:47:57;6.05;;;2.67;;
53710;SDS011;39605;52.704;6.752;2023-08-07T01:50:25;5.03;;;2.20;;
53710;SDS011;39605;52.704;6.752;2023-08-07T01:52:51;4.15;;;1.88;;
53710;SDS011;39605;52.704;6.752;2023-08-07T01:55:18;5.50;;;1.75;;
53710;SDS011;39605;52.704;6.752;2023-08-07T01:57:44;2.60;;;1.73;;
53710;SDS011;39605;52.704;6.752;2023-08-07T02:00:10;4.05;;;1.60;;
53710;SDS011;39605;52.704;6.752;2023-08-07T02:02:36;7.18;;;2.30;;
53710;SDS011;39605;52.704;6.752;2023-08-07T02:05:03;6.45;;;2.30;;
53710;SDS011;39605;52.704;6.752;2023-08-07T02:07:29;5.38;;;1.58;;
53710;SDS011;39605;52.704;6.752;2023-08-07T02:09:55;6.35;;;1.83;;
53710;SDS011;39605;52.704;6.752;2023-08-07T02:12:21;6.32;;;1.95;;
53710;SDS011;39605;52.704;6.752;2023-08-07T02:14:48;4.03;;;1.60;;
53710;SDS011;39605;52.704;6.752;2023-08-07T02:17:14;4.80;;;1.58;;
53710;SDS011;39605;52.704;6.752;2023-08-07T02:19:40;5.15;;;1.42;;
53710;SDS011;39605;52.704;6.752;2023-08-07T02:22:06;5.00;;;1.17;;
53710;SDS011;39605;52.704;6.752;2023-08-07T02:24:32;4.47;;;1.25;;
53710;SDS011;39605;52.704;6.752;2023-08-07T02:26:58;6.88;;;1.30;;
53710;SDS011;39605;52.704;6.752;2023-08-07T02:29:24;4.22;;;1.15;;
53710;SDS011;39605;52.704;6.752;2023-08-07T02:31:50;5.32;;;1.10;;
53710;SDS011;39605;52.704;6.752;2023-08-07T02:34:16;4.47;;;1.10;;
53710;SDS011;39605;52.704;6.752;2023-08-07T02:36:42;8.68;;;1.50;;
53710;SDS011;39605;52.704;6.752;2023-08-07T02:39:08;5.80;;;1.50;;
53710;SDS011;39605;52.704;6.752;2023-08-07T02:41:35;6.20;;;0.98;;
53710;SDS011;39605;52.704;6.752;2023-08-07T02:44:01;8.43;;;1.30;;
53710;SDS011;39605;52.704;6.752;2023-08-07T02:46:27;8.38;;;1.63;;
53710;SDS011;39605;52.704;6.752;2023-08-07T02:48:53;9.82;;;1.45;;
53710;SDS011;39605;52.704;6.752;2023-08-07T02:51:19;6.47;;;1.60;;
53710;SDS011;39605;52.704;6.752;2023-08-07T02:53:45;9.40;;;1.08;;
53710;SDS011;39605;52.704;6.752;2023-08-07T02:56:11;7.57;;;1.33;;
53710;SDS011;39605;52.704;6.752;2023-08-07T02:58:37;6.82;;;1.30;;
53710;SDS011;39605;52.704;6.752;2023-08-07T03:01:04;6.60;;;0.98;;
53710;SDS011;39605;52.704;6.752;2023-08-07T03:03:31;4.90;;;0.95;;
53710;SDS011;39605;52.704;6.752;2023-08-07T03:05:57;6.22;;;1.23;;
53710;SDS011;39605;52.704;6.752;2023-08-07T03:08:23;6.93;;;1.40;;
53710;SDS011;39605;52.704;6.752;2023-08-07T03:10:53;7.70;;;1.00;;
53710;SDS011;39605;52.704;6.752;2023-08-07T03:13:21;6.78;;;1.70;;
53710;SDS011;39605;52.704;6.752;2023-08-07T03:15:47;7.38;;;1.27;;
53710;SDS011;39605;52.704;6.752;2023-08-07T03:18:15;5.75;;;0.98;;
53710;SDS011;39605;52.704;6.752;2023-08-07T03:20:41;6.28;;;0.90;;
53710;SDS011;39605;52.704;6.752;2023-08-07T03:23:08;7.63;;;1.65;;
53710;SDS011;39605;52.704;6.752;2023-08-07T03:25:34;10.05;;;0.90;;
53710;SDS011;39605;52.704;6.752;2023-08-07T03:28:00;6.20;;;1.08;;
53710;SDS011;39605;52.704;6.752;2023-08-07T03:30:27;7.28;;;1.00;;
53710;SDS011;39605;52.704;6.752;2023-08-07T03:32:53;6.95;;;0.65;;
53710;SDS011;39605;52.704;6.752;2023-08-07T03:35:19;6.63;;;0.52;;
53710;SDS011;39605;52.704;6.752;2023-08-07T03:37:45;8.63;;;0.88;;
53710;SDS011;39605;52.704;6.752;2023-08-07T03:40:11;5.75;;;0.80;;
53710;SDS011;39605;52.704;6.752;2023-08-07T03:42:37;6.28;;;0.70;;
53710;SDS011;39605;52.704;6.752;2023-08-07T03:45:03;7.15;;;0.85;;
53710;SDS011;39605;52.704;6.752;2023-08-07T03:47:29;8.25;;;0.70;;
53710;SDS011;39605;52.704;6.752;2023-08-07T03:49:55;9.77;;;1.08;;
53710;SDS011;39605;52.704;6.752;2023-08-07T03:52:21;7.57;;;1.15;;
53710;SDS011;39605;52.704;6.752;2023-08-07T03:54:47;8.02;;;0.88;;
53710;SDS011;39605;52.704;6.752;2023-08-07T03:57:13;9.07;;;1.02;;
53710;SDS011;39605;52.704;6.752;2023-08-07T03:59:39;5.80;;;0.95;;
53710;SDS011;39605;52.704;6.752;2023-08-07T04:02:07;11.60;;;0.85;;
53710;SDS011;39605;52.704;6.752;2023-08-07T04:04:33;7.75;;;0.90;;
53710;SDS011;39605;52.704;6.752;2023-08-07T04:06:59;11.43;;;1.20;;
53710;SDS011;39605;52.704;6.752;2023-08-07T04:09:25;8.10;;;1.15;;
53710;SDS011;39605;52.704;6.752;2023-08-07T04:11:51;9.18;;;1.08;;
53710;SDS011;39605;52.704;6.752;2023-08-07T04:14:17;8.95;;;1.40;;
53710;SDS011;39605;52.704;6.752;2023-08-07T04:16:43;10.32;;;0.93;;
53710;SDS011;39605;52.704;6.752;2023-08-07T04:19:09;9.05;;;1.20;;
53710;SDS011;39605;52.704;6.752;2023-08-07T04:21:35;9.27;;;1.58;;
53710;SDS011;39605;52.704;6.752;2023-08-07T04:24:01;6.82;;;0.98;;
53710;SDS011;39605;52.704;6.752;2023-08-07T04:26:36;7.35;;;1.02;;
53710;SDS011;39605;52.704;6.752;2023-08-07T04:29:02;8.07;;;1.10;;
53710;SDS011;39605;52.704;6.752;2023-08-07T04:31:29;6.38;;;1.02;;
53710;SDS011;39605;52.704;6.752;2023-08-07T04:33:59;7.00;;;1.00;;
53710;SDS011;39605;52.704;6.752;2023-08-07T04:36:25;6.72;;;1.00;;
53710;SDS011;39605;52.704;6.752;2023-08-07T04:38:51;5.35;;;1.13;;
53710;SDS011;39605;52.704;6.752;2023-08-07T04:41:17;7.35;;;0.90;;
53710;SDS011;39605;52.704;6.752;2023-08-07T04:43:44;7.55;;;1.20;;
53710;SDS011;39605;52.704;6.752;2023-08-07T04:46:10;4.35;;;0.80;;
53710;SDS011;39605;52.704;6.752;2023-08-07T04:48:37;6.40;;;0.85;;
53710;SDS011;39605;52.704;6.752;2023-08-07T04:51:03;6.55;;;1.20;;
53710;SDS011;39605;52.704;6.752;2023-08-07T04:53:29;7.03;;;1.10;;
53710;SDS011;39605;52.704;6.752;2023-08-07T04:55:55;4.85;;;0.95;;
53710;SDS011;39605;52.704;6.752;2023-08-07T04:58:21;5.22;;;1.00;;
53710;SDS011;39605;52.704;6.752;2023-08-07T05:00:48;7.07;;;1.33;;
53710;SDS011;39605;52.704;6.752;2023-08-07T05:03:14;5.10;;;1.63;;
53710;SDS011;39605;52.704;6.752;2023-08-07T05:05:40;3.22;;;1.15;;
53710;SDS011;39605;52.704;6.752;2023-08-07T05:08:06;6.93;;;1.35;;
53710;SDS011;39605;52.704;6.752;2023-08-07T05:10:32;7.97;;;1.67;;
53710;SDS011;39605;52.704;6.752;2023-08-07T05:12:58;6.40;;;1.23;;
53710;SDS011;39605;52.704;6.752;2023-08-07T05:15:25;7.68;;;1.92;;
53710;SDS011;39605;52.704;6.752;2023-08-07T05:17:53;6.00;;;1.63;;
53710;SDS011;39605;52.704;6.752;2023-08-07T05:20:19;9.75;;;1.80;;
53710;SDS011;39605;52.704;6.752;2023-08-07T05:22:45;7.13;;;1.80;;
53710;SDS011;39605;52.704;6.752;2023-08-07T05:25:11;6.20;;;1.50;;
53710;SDS011;39605;52.704;6.752;2023-08-07T05:27:41;6.68;;;1.48;;
53710;SDS011;39605;52.704;6.752;2023-08-07T05:30:07;9.00;;;1.83;;
53710;SDS011;39605;52.704;6.752;2023-08-07T05:32:33;5.95;;;1.52;;
53710;SDS011;39605;52.704;6.752;2023-08-07T05:35:03;6.90;;;2.53;;
53710;SDS011;39605;52.704;6.752;2023-08-07T05:37:29;9.45;;;2.33;;
53710;SDS011;39605;52.704;6.752;2023-08-07T05:39:56;6.88;;;1.77;;
53710;SDS011;39605;52.704;6.752;2023-08-07T05:42:22;7.97;;;1.55;;
53710;SDS011;39605;52.704;6.752;2023-08-07T05:44:49;8.60;;;1.83;;
53710;SDS011;39605;52.704;6.752;2023-08-07T05:47:15;10.65;;;2.17;;
53710;SDS011;39605;52.704;6.752;2023-08-07T05:49:41;7.15;;;1.83;;
53710;SDS011;39605;52.704;6.752;2023-08-07T05:52:07;5.90;;;1.48;;
53710;SDS011;39605;52.704;6.752;2023-08-07T05:54:33;6.25;;;1.20;;
53710;SDS011;39605;52.704;6.752;2023-08-07T05:57:00;4.90;;;1.48;;
53710;SDS011;39605;52.704;6.752;2023-08-07T05:59:26;5.30;;;1.17;;
53710;SDS011;39605;52.704;6.752;2023-08-07T06:01:52;4.43;;;1.08;;
53710;SDS011;39605;52.704;6.752;2023-08-07T06:04:19;4.47;;;1.10;;
53710;SDS011;39605;52.704;6.752;2023-08-07T06:06:45;7.90;;;1.10;;
53710;SDS011;39605;52.704;6.752;2023-08-07T06:09:11;8.45;;;1.40;;
53710;SDS011;39605;52.704;6.752;2023-08-07T06:11:39;6.95;;;1.70;;
53710;SDS011;39605;52.704;6.752;2023-08-07T06:14:06;8.18;;;1.30;;
53710;SDS011;39605;52.704;6.752;2023-08-07T06:16:32;9.23;;;1.35;;
53710;SDS011;39605;52.704;6.752;2023-08-07T06:18:58;9.65;;;1.80;;
53710;SDS011;39605;52.704;6.752;2023-08-07T06:21:24;7.47;;;1.50;;
53710;SDS011;39605;52.704;6.752;2023-08-07T06:23:50;7.30;;;1.67;;
53710;SDS011;39605;52.704;6.752;2023-08-07T06:26:16;8.00;;;1.63;;
53710;SDS011;39605;52.704;6.752;2023-08-07T06:28:43;7.72;;;1.83;;
53710;SDS011;39605;52.704;6.752;2023-08-07T06:31:10;4.90;;;1.15;;
53710;SDS011;39605;52.704;6.752;2023-08-07T06:33:36;6.18;;;1.42;;
53710;SDS011;39605;52.704;6.752;2023-08-07T06:36:02;7.03;;;2.08;;
53710;SDS011;39605;52.704;6.752;2023-08-07T06:38:29;7.82;;;2.75;;
53710;SDS011;39605;52.704;6.752;2023-08-07T06:40:55;6.03;;;1.60;;
53710;SDS011;39605;52.704;6.752;2023-08-07T06:43:21;10.70;;;2.28;;
53710;SDS011;39605;52.704;6.752;2023-08-07T06:45:50;5.15;;;1.73;;
53710;SDS011;39605;52.704;6.752;2023-08-07T06:48:17;10.68;;;2.15;;
53710;SDS011;39605;52.704;6.752;2023-08-07T06:50:43;10.18;;;2.20;;
53710;SDS011;39605;52.704;6.752;2023-08-07T06:53:10;12.25;;;2.38;;
53710;SDS011;39605;52.704;6.752;2023-08-07T06:55:36;7.10;;;2.40;;
53710;SDS011;39605;52.704;6.752;2023-08-07T06:58:02;8.93;;;2.88;;
53710;SDS011;39605;52.704;6.752;2023-08-07T07:00:28;13.93;;;2.97;;
53710;SDS011;39605;52.704;6.752;2023-08-07T07:02:54;4.18;;;1.63;;
53710;SDS011;39605;52.704;6.752;2023-08-07T07:05:20;6.50;;;0.77;;
53710;SDS011;39605;52.704;6.752;2023-08-07T07:07:47;5.85;;;1.10;;
53710;SDS011;39605;52.704;6.752;2023-08-07T07:10:13;6.22;;;1.00;;
53710;SDS011;39605;52.704;6.752;2023-08-07T07:12:39;5.85;;;1.17;;
53710;SDS011;39605;52.704;6.752;2023-08-07T07:15:05;5.95;;;1.60;;
53710;SDS011;39605;52.704;6.752;2023-08-07T07:17:31;8.32;;;1.60;;
53710;SDS011;39605;52.704;6.752;2023-08-07T07:19:57;10.00;;;1.23;;
53710;SDS011;39605;52.704;6.752;2023-08-07T07:22:23;8.52;;;1.30;;
53710;SDS011;39605;52.704;6.752;2023-08-07T07:24:49;7.88;;;1.75;;
53710;SDS011;39605;52.704;6.752;2023-08-07T07:27:15;8.93;;;1.63;;
53710;SDS011;39605;52.704;6.752;2023-08-07T07:29:41;7.63;;;1.35;;
53710;SDS011;39605;52.704;6.752;2023-08-07T07:32:07;8.20;;;1.42;;
53710;SDS011;39605;52.704;6.752;2023-08-07T07:34:33;5.63;;;1.67;;
53710;SDS011;39605;52.704;6.752;2023-08-07T07:36:59;8.88;;;1.80;;
53710;SDS011;39605;52.704;6.752;2023-08-07T07:39:25;7.07;;;1.70;;
53710;SDS011;39605;52.704;6.752;2023-08-07T07:41:52;8.32;;;1.40;;
53710;SDS011;39605;52.704;6.752;2023-08-07T07:44:18;8.60;;;1.92;;
53710;SDS011;39605;52.704;6.752;2023-08-07T07:46:44;8.90;;;1.90;;
53710;SDS011;39605;52.704;6.752;2023-08-07T07:49:10;9.50;;;1.48;;
53710;SDS011;39605;52.704;6.752;2023-08-07T07:51:36;11.05;;;1.73;;
53710;SDS011;39605;52.704;6.752;2023-08-07T07:54:02;8.13;;;1.48;;
53710;SDS011;39605;52.704;6.752;2023-08-07T07:56:29;6.88;;;1.20;;
53710;SDS011;39605;52.704;6.752;2023-08-07T07:58:55;9.23;;;1.00;;
53710;SDS011;39605;52.704;6.752;2023-08-07T08:01:21;8.85;;;1.35;;
53710;SDS011;39605;52.704;6.752;2023-08-07T08:03:48;7.20;;;1.50;;
53710;SDS011;39605;52.704;6.752;2023-08-07T08:06:14;8.02;;;1.30;;
53710;SDS011;39605;52.704;6.752;2023-08-07T08:08:40;3.67;;;0.98;;
53710;SDS011;39605;52.704;6.752;2023-08-07T08:11:07;5.18;;;0.80;;
53710;SDS011;39605;52.704;6.752;2023-08-07T08:13:33;6.85;;;1.05;;
53710;SDS011;39605;52.704;6.752;2023-08-07T08:16:03;4.43;;;0.82;;
53710;SDS011;39605;52.704;6.752;2023-08-07T08:18:30;3.50;;;0.68;;
53710;SDS011;39605;52.704;6.752;2023-08-07T08:20:56;4.80;;;0.80;;
53710;SDS011;39605;52.704;6.752;2023-08-07T08:23:22;4.40;;;0.80;;
53710;SDS011;39605;52.704;6.752;2023-08-07T08:25:48;4.68;;;0.80;;
53710;SDS011;39605;52.704;6.752;2023-08-07T08:28:16;3.65;;;0.50;;
53710;SDS011;39605;52.704;6.752;2023-08-07T08:30:42;3.63;;;0.52;;
53710;SDS011;39605;52.704;6.752;2023-08-07T08:33:08;5.47;;;0.60;;
53710;SDS011;39605;52.704;6.752;2023-08-07T08:35:37;2.53;;;0.43;;
53710;SDS011;39605;52.704;6.752;2023-08-07T08:38:03;2.78;;;0.43;;
53710;SDS011;39605;52.704;6.752;2023-08-07T08:40:33;2.65;;;0.52;;
53710;SDS011;39605;52.704;6.752;2023-08-07T08:43:02;2.85;;;0.70;;
53710;SDS011;39605;52.704;6.752;2023-08-07T08:45:30;6.38;;;0.95;;
53710;SDS011;39605;52.704;6.752;2023-08-07T08:48:03;5.43;;;0.70;;
53710;SDS011;39605;52.704;6.752;2023-08-07T08:50:30;4.68;;;0.52;;
53710;SDS011;39605;52.704;6.752;2023-08-07T08:52:57;5.53;;;1.00;;
53710;SDS011;39605;52.704;6.752;2023-08-07T08:55:24;6.10;;;0.95;;
53710;SDS011;39605;52.704;6.752;2023-08-07T08:57:51;4.43;;;0.93;;
53710;SDS011;39605;52.704;6.752;2023-08-07T09:00:21;7.38;;;1.27;;
53710;SDS011;39605;52.704;6.752;2023-08-07T09:02:51;4.30;;;0.80;;
53710;SDS011;39605;52.704;6.752;2023-08-07T09:05:18;4.90;;;0.70;;
53710;SDS011;39605;52.704;6.752;2023-08-07T09:07:47;4.97;;;0.70;;
53710;SDS011;39605;52.704;6.752;2023-08-07T09:10:14;5.18;;;0.93;;
53710;SDS011;39605;52.704;6.752;2023-08-07T09:12:42;3.88;;;0.70;;
53710;SDS011;39605;52.704;6.752;2023-08-07T09:15:09;3.08;;;1.10;;
53710;SDS011;39605;52.704;6.752;2023-08-07T09:17:40;3.85;;;0.85;;
53710;SDS011;39605;52.704;6.752;2023-08-07T09:20:07;4.90;;;0.98;;
53710;SDS011;39605;52.704;6.752;2023-08-07T09:22:37;7.32;;;1.08;;
53710;SDS011;39605;52.704;6.752;2023-08-07T09:25:03;7.05;;;1.30;;
53710;SDS011;39605;52.704;6.752;2023-08-07T09:27:31;8.95;;;2.40;;
53710;SDS011;39605;52.704;6.752;2023-08-07T09:29:58;6.72;;;2.15;;
53710;SDS011;39605;52.704;6.752;2023-08-07T09:32:27;8.95;;;2.28;;
53710;SDS011;39605;52.704;6.752;2023-08-07T09:34:53;6.28;;;1.67;;
53710;SDS011;39605;52.704;6.752;2023-08-07T09:37:20;6.93;;;1.70;;
53710;SDS011;39605;52.704;6.752;2023-08-07T09:39:46;7.07;;;1.83;;
53710;SDS011;39605;52.704;6.752;2023-08-07T09:42:16;7.07;;;1.65;;
53710;SDS011;39605;52.704;6.752;2023-08-07T09:44:43;6.43;;;1.50;;
53710;SDS011;39605;52.704;6.752;2023-08-07T09:47:17;5.95;;;1.63;;
53710;SDS011;39605;52.704;6.752;2023-08-07T09:49:44;5.53;;;1.67;;
53710;SDS011;39605;52.704;6.752;2023-08-07T09:52:13;9.10;;;1.33;;
53710;SDS011;39605;52.704;6.752;2023-08-07T09:54:40;4.93;;;1.05;;
53710;SDS011;39605;52.704;6.752;2023-08-07T09:57:06;8.05;;;1.38;;
53710;SDS011;39605;52.704;6.752;2023-08-07T09:59:33;6.95;;;1.00;;
53710;SDS011;39605;52.704;6.752;2023-08-07T10:02:00;7.55;;;1.65;;
53710;SDS011;39605;52.704;6.752;2023-08-07T10:04:29;4.85;;;0.80;;
53710;SDS011;39605;52.704;6.752;2023-08-07T10:06:56;10.48;;;1.63;;
53710;SDS011;39605;52.704;6.752;2023-08-07T10:09:22;4.88;;;1.00;;
53710;SDS011;39605;52.704;6.752;2023-08-07T10:11:48;6.45;;;1.20;;
53710;SDS011;39605;52.704;6.752;2023-08-07T10:14:15;4.80;;;0.70;;
53710;SDS011;39605;52.704;6.752;2023-08-07T10:16:41;4.18;;;0.63;;
53710;SDS011;39605;52.704;6.752;2023-08-07T10:19:08;10.75;;;0.80;;
53710;SDS011;39605;52.704;6.752;2023-08-07T10:21:38;5.07;;;0.70;;
53710;SDS011;39605;52.704;6.752;2023-08-07T10:24:05;5.78;;;0.70;;
53710;SDS011;39605;52.704;6.752;2023-08-07T10:26:33;3.65;;;0.80;;
53710;SDS011;39605;52.704;6.752;2023-08-07T10:29:00;6.15;;;1.38;;
53710;SDS011;39605;52.704;6.752;2023-08-07T10:31:27;4.78;;;0.75;;
53710;SDS011;39605;52.704;6.752;2023-08-07T10:33:54;5.88;;;1.02;;
53710;SDS011;39605;52.704;6.752;2023-08-07T10:36:20;5.47;;;0.93;;
53710;SDS011;39605;52.704;6.752;2023-08-07T10:38:50;4.55;;;0.60;;
53710;SDS011;39605;52.704;6.752;2023-08-07T10:41:16;6.32;;;0.90;;
53710;SDS011;39605;52.704;6.752;2023-08-07T10:43:44;4.82;;;1.05;;
53710;SDS011;39605;52.704;6.752;2023-08-07T10:48:43;4.88;;;0.57;;
53710;SDS011;39605;52.704;6.752;2023-08-07T10:51:12;4.72;;;0.60;;
53710;SDS011;39605;52.704;6.752;2023-08-07T10:53:47;2.13;;;0.85;;
53710;SDS011;39605;52.704;6.752;2023-08-07T10:58:40;4.07;;;0.50;;
53710;SDS011;39605;52.704;6.752;2023-08-07T11:03:45;5.85;;;0.82;;
53710;SDS011;39605;52.704;6.752;2023-08-07T11:06:11;3.13;;;0.63;;
53710;SDS011;39605;52.704;6.752;2023-08-07T11:08:37;4.95;;;0.68;;
53710;SDS011;39605;52.704;6.752;2023-08-07T11:11:04;2.67;;;0.70;;
53710;SDS011;39605;52.704;6.752;2023-08-07T11:13:31;4.80;;;0.68;;
53710;SDS011;39605;52.704;6.752;2023-08-07T11:15:57;5.18;;;0.50;;
53710;SDS011;39605;52.704;6.752;2023-08-07T11:18:24;4.20;;;0.73;;
53710;SDS011;39605;52.704;6.752;2023-08-07T11:20:52;3.72;;;0.60;;
53710;SDS011;39605;52.704;6.752;2023-08-07T11:23:25;6.22;;;1.17;;
53710;SDS011;39605;52.704;6.752;2023-08-07T11:25:52;8.00;;;0.63;;
53710;SDS011;39605;52.704;6.752;2023-08-07T11:28:18;3.08;;;0.50;;
53710;SDS011;39605;52.704;6.752;2023-08-07T11:30:46;2.10;;;0.50;;
53710;SDS011;39605;52.704;6.752;2023-08-07T11:33:13;5.00;;;0.80;;
53710;SDS011;39605;52.704;6.752;2023-08-07T11:35:42;3.17;;;0.70;;
53710;SDS011;39605;52.704;6.752;2023-08-07T11:38:08;8.65;;;1.83;;
53710;SDS011;39605;52.704;6.752;2023-08-07T11:40:35;3.40;;;0.60;;
53710;SDS011;39605;52.704;6.752;2023-08-07T11:43:01;4.20;;;0.70;;
53710;SDS011;39605;52.704;6.752;2023-08-07T11:45:27;5.13;;;0.70;;
53710;SDS011;39605;52.704;6.752;2023-08-07T11:47:54;3.08;;;0.77;;
53710;SDS011;39605;52.704;6.752;2023-08-07T11:50:24;3.30;;;0.60;;
53710;SDS011;39605;52.704;6.752;2023-08-07T11:52:50;4.00;;;0.43;;
53710;SDS011;39605;52.704;6.752;2023-08-07T11:55:17;4.90;;;0.50;;
53710;SDS011;39605;52.704;6.752;2023-08-07T11:57:45;2.92;;;0.50;;
53710;SDS011;39605;52.704;6.752;2023-08-07T12:00:12;2.47;;;0.40;;
53710;SDS011;39605;52.704;6.752;2023-08-07T12:02:44;2.40;;;0.35;;
53710;SDS011;39605;52.704;6.752;2023-08-07T12:05:11;3.58;;;0.40;;
53710;SDS011;39605;52.704;6.752;2023-08-07T12:07:38;1.58;;;0.30;;
53710;SDS011;39605;52.704;6.752;2023-08-07T12:10:07;3.28;;;0.57;;
53710;SDS011;39605;52.704;6.752;2023-08-07T12:12:37;3.28;;;0.50;;
53710;SDS011;39605;52.704;6.752;2023-08-07T12:15:07;5.43;;;0.68;;
53710;SDS011;39605;52.704;6.752;2023-08-07T12:17:33;3.85;;;0.50;;
53710;SDS011;39605;52.704;6.752;2023-08-07T12:19:59;1.63;;;0.60;;
53710;SDS011;39605;52.704;6.752;2023-08-07T12:22:27;2.67;;;0.45;;
53710;SDS011;39605;52.704;6.752;2023-08-07T12:24:56;4.13;;;0.50;;
53710;SDS011;39605;52.704;6.752;2023-08-07T12:27:22;6.50;;;0.60;;
53710;SDS011;39605;52.704;6.752;2023-08-07T12:29:48;4.35;;;0.40;;
53710;SDS011;39605;52.704;6.752;2023-08-07T12:32:14;2.72;;;0.45;;
53710;SDS011;39605;52.704;6.752;2023-08-07T12:34:40;1.90;;;0.30;;
53710;SDS011;39605;52.704;6.752;2023-08-07T12:37:06;4.55;;;0.40;;
53710;SDS011;39605;52.704;6.752;2023-08-07T12:39:32;4.72;;;0.60;;
53710;SDS011;39605;52.704;6.752;2023-08-07T12:41:58;3.08;;;0.50;;
53710;SDS011;39605;52.704;6.752;2023-08-07T12:44:24;2.45;;;0.50;;
53710;SDS011;39605;52.704;6.752;2023-08-07T12:46:50;2.80;;;0.63;;
53710;SDS011;39605;52.704;6.752;2023-08-07T12:49:17;3.33;;;0.50;;
53710;SDS011;39605;52.704;6.752;2023-08-07T12:51:44;1.98;;;0.63;;
53710;SDS011;39605;52.704;6.752;2023-08-07T12:54:10;2.55;;;0.50;;
53710;SDS011;39605;52.704;6.752;2023-08-07T12:56:36;3.33;;;0.57;;
53710;SDS011;39605;52.704;6.752;2023-08-07T12:59:02;2.65;;;0.50;;
53710;SDS011;39605;52.704;6.752;2023-08-07T13:01:28;5.32;;;0.60;;
53710;SDS011;39605;52.704;6.752;2023-08-07T13:03:54;3.50;;;0.77;;
53710;SDS011;39605;52.704;6.752;2023-08-07T13:06:20;5.38;;;0.60;;
53710;SDS011;39605;52.704;6.752;2023-08-07T13:08:46;5.38;;;0.50;;
53710;SDS011;39605;52.704;6.752;2023-08-07T13:11:13;5.72;;;0.70;;
53710;SDS011;39605;52.704;6.752;2023-08-07T13:13:39;2.97;;;0.70;;
53710;SDS011;39605;52.704;6.752;2023-08-07T13:16:05;3.10;;;0.68;;
53710;SDS011;39605;52.704;6.752;2023-08-07T13:18:32;4.28;;;0.70;;
53710;SDS011;39605;52.704;6.752;2023-08-07T13:20:58;4.32;;;0.75;;
53710;SDS011;39605;52.704;6.752;2023-08-07T13:23:24;3.85;;;0.80;;
53710;SDS011;39605;52.704;6.752;2023-08-07T13:25:50;3.08;;;0.60;;
53710;SDS011;39605;52.704;6.752;2023-08-07T13:28:16;3.42;;;1.00;;
53710;SDS011;39605;52.704;6.752;2023-08-07T13:30:43;1.73;;;0.50;;
53710;SDS011;39605;52.704;6.752;2023-08-07T13:33:09;3.70;;;0.57;;
53710;SDS011;39605;52.704;6.752;2023-08-07T13:35:35;3.25;;;0.60;;
53710;SDS011;39605;52.704;6.752;2023-08-07T13:38:02;2.70;;;0.63;;
53710;SDS011;39605;52.704;6.752;2023-08-07T13:40:31;1.60;;;0.68;;
53710;SDS011;39605;52.704;6.752;2023-08-07T13:42:57;4.07;;;0.65;;
53710;SDS011;39605;52.704;6.752;2023-08-07T13:45:24;2.55;;;0.70;;
53710;SDS011;39605;52.704;6.752;2023-08-07T13:47:50;2.33;;;0.70;;
53710;SDS011;39605;52.704;6.752;2023-08-07T13:50:16;3.17;;;0.70;;
53710;SDS011;39605;52.704;6.752;2023-08-07T13:52:42;6.20;;;0.80;;
53710;SDS011;39605;52.704;6.752;2023-08-07T13:55:14;2.22;;;0.68;;
53710;SDS011;39605;52.704;6.752;2023-08-07T13:57:40;1.80;;;0.60;;
53710;SDS011;39605;52.704;6.752;2023-08-07T14:00:07;1.27;;;0.40;;
53710;SDS011;39605;52.704;6.752;2023-08-07T14:02:33;3.13;;;0.90;;
53710;SDS011;39605;52.704;6.752;2023-08-07T14:05:00;2.47;;;0.82;;
53710;SDS011;39605;52.704;6.752;2023-08-07T14:07:26;4.07;;;0.82;;
53710;SDS011;39605;52.704;6.752;2023-08-07T14:09:52;3.95;;;1.00;;
53710;SDS011;39605;52.704;6.752;2023-08-07T14:12:18;2.15;;;1.15;;
53710;SDS011;39605;52.704;6.752;2023-08-07T14:14:44;5.00;;;1.38;;
53710;SDS011;39605;52.704;6.752;2023-08-07T14:17:10;3.08;;;1.42;;
53710;SDS011;39605;52.704;6.752;2023-08-07T14:19:36;4.53;;;1.67;;
53710;SDS011;39605;52.704;6.752;2023-08-07T14:22:02;5.07;;;1.45;;
53710;SDS011;39605;52.704;6.752;2023-08-07T14:24:28;4.18;;;1.05;;
53710;SDS011;39605;52.704;6.752;2023-08-07T14:26:55;3.78;;;1.38;;
53710;SDS011;39605;52.704;6.752;2023-08-07T14:29:21;3.70;;;1.30;;
53710;SDS011;39605;52.704;6.752;2023-08-07T14:31:47;3.90;;;1.33;;
53710;SDS011;39605;52.704;6.752;2023-08-07T14:34:13;2.95;;;1.10;;
53710;SDS011;39605;52.704;6.752;2023-08-07T14:36:39;3.53;;;1.13;;
53710;SDS011;39605;52.704;6.752;2023-08-07T14:39:05;7.70;;;1.63;;
53710;SDS011;39605;52.704;6.752;2023-08-07T14:41:32;5.28;;;1.05;;
53710;SDS011;39605;52.704;6.752;2023-08-07T14:43:58;4.60;;;1.10;;
53710;SDS011;39605;52.704;6.752;2023-08-07T14:46:24;4.57;;;1.20;;
53710;SDS011;39605;52.704;6.752;2023-08-07T14:48:50;3.75;;;0.90;;
53710;SDS011;39605;52.704;6.752;2023-08-07T14:51:16;2.65;;;0.90;;
53710;SDS011;39605;52.704;6.752;2023-08-07T14:53:42;4.63;;;1.17;;
53710;SDS011;39605;52.704;6.752;2023-08-07T14:56:08;2.35;;;0.73;;